Time;durP1;ratioP1;P1;durP2;ratioP2;P2;SDS_P1;SDS_P2;PMS_P1;PMS_P2;Temp;Humidity;BMP_temperature;BMP_pressure;BME280_temperature;BME280_humidity;BME280_pressure;Samples;Min_cycle;Max_cycle;Signal;HPM_P1;HPM_P2
2023/06/20 00:00:50;;;;;;;;;2.33;1.67;;;;;24.57;89.52;100248.06;6194015;23;44774;-84
2023/06/20 00:03:18;;;;;;;;;1.00;1.00;;;;;24.71;89.90;100256.38;6168615;23;46887;-85
2023/06/20 00:09:06;;;;;;;;;2.00;2.00;;;;;24.46;90.33;100265.78;6193304;23;45251;-84
2023/06/20 00:11:31;;;;;;;;;1.00;1.00;;;;;24.45;90.79;100264.00;6193870;23;45423;-85
2023/06/20 00:14:00;;;;;;;;;2.00;2.00;;;;;24.69;91.05;100256.44;6191363;23;47694;-84
2023/06/20 00:16:25;;;;;;;;;2.00;2.00;;;;;24.38;91.42;100256.22;6193502;23;45423;-84
2023/06/20 00:18:54;;;;;;;;;2.00;2.00;;;;;24.38;91.78;100248.97;6192206;23;44882;-84
2023/06/20 00:21:25;;;;;;;;;2.00;2.00;;;;;24.39;92.19;100247.13;6192460;23;45474;-84
2023/06/20 00:23:53;;;;;;;;;1.33;1.33;;;;;24.32;92.54;100241.16;6177943;23;45353;-84
2023/06/20 00:26:20;;;;;;;;;2.33;2.00;;;;;24.30;92.91;100240.34;6162409;23;45855;-85
2023/06/20 00:28:45;;;;;;;;;2.00;2.00;;;;;24.25;93.55;100242.41;6133193;23;45372;-84
2023/06/20 00:31:11;;;;;;;;;2.00;2.00;;;;;24.15;93.85;100231.09;6160285;23;45373;-84
2023/06/20 00:33:38;;;;;;;;;2.00;2.00;;;;;24.37;94.53;100249.91;6163636;23;45425;-84
2023/06/20 00:36:04;;;;;;;;;0.75;0.75;;;;;24.17;94.60;100242.78;6162448;23;45646;-85
2023/06/20 00:38:29;;;;;;;;;3.00;2.00;;;;;24.12;94.83;100237.59;6162812;23;45355;-84
2023/06/20 00:40:58;;;;;;;;;3.00;3.00;;;;;24.34;95.33;100240.09;6164082;23;45621;-83
2023/06/20 00:43:23;;;;;;;;;1.50;1.50;;;;;24.12;95.02;100234.88;6165064;23;45345;-83
2023/06/20 00:45:49;;;;;;;;;2.00;2.00;;;;;24.17;95.46;100243.66;6162203;23;45302;-84
2023/06/20 00:48:15;;;;;;;;;2.33;2.33;;;;;24.26;95.73;100241.44;6158199;23;45398;-84
2023/06/20 00:50:41;;;;;;;;;2.00;2.00;;;;;24.19;95.96;100245.44;6165086;23;44786;-84
2023/06/20 00:53:07;;;;;;;;;3.00;3.00;;;;;24.13;96.30;100236.63;6164294;23;45696;-84
2023/06/20 00:55:34;;;;;;;;;2.00;2.00;;;;;24.23;96.56;100230.72;6138348;23;45385;-84
2023/06/20 00:58:01;;;;;;;;;3.33;1.67;;;;;24.21;96.75;100228.09;6166277;23;45382;-84
2023/06/20 01:00:30;;;;;;;;;2.00;2.00;;;;;24.20;96.93;100218.19;6164533;23;45302;-85
2023/06/20 01:03:01;;;;;;;;;2.00;2.00;;;;;24.13;97.16;100217.59;6158024;23;46614;-85
2023/06/20 01:05:31;;;;;;;;;3.33;3.00;;;;;24.09;97.83;100229.56;6167356;23;45308;-85
2023/06/20 01:08:30;;;;;;;;;1.00;1.00;;;;;24.27;97.65;100235.03;6157592;23;45470;-85
2023/06/20 01:11:04;;;;;;;;;3.33;3.33;;;;;24.23;98.25;100241.59;6149974;23;45305;-86
2023/06/20 01:13:39;;;;;;;;;1.00;1.00;;;;;24.00;98.31;100235.50;6165889;23;45444;-86
2023/06/20 01:16:16;;;;;;;;;2.00;2.00;;;;;24.23;98.72;100237.03;6165555;23;45132;-85
2023/06/20 01:18:55;;;;;;;;;3.00;3.00;;;;;24.21;98.90;100236.22;6165542;23;45326;-85
2023/06/20 01:21:30;;;;;;;;;2.00;2.00;;;;;24.17;99.33;100232.78;6141763;23;45772;-85
2023/06/20 01:24:06;;;;;;;;;2.00;2.00;;;;;24.20;99.45;100225.44;6178933;23;47521;-85
2023/06/20 01:30:10;;;;;;;;;2.67;2.67;;;;;24.27;99.59;100216.03;6197308;23;45396;-86
2023/06/20 01:32:45;;;;;;;;;2.67;2.00;;;;;24.15;100.00;100212.97;6171245;23;45321;-85
2023/06/20 01:35:18;;;;;;;;;3.33;3.33;;;;;24.11;100.00;100215.91;6171301;23;47127;-85
2023/06/20 01:37:47;;;;;;;;;1.25;1.25;;;;;24.00;100.00;100208.31;6170748;23;45404;-85
2023/06/20 01:40:19;;;;;;;;;2.00;2.00;;;;;24.10;100.00;100208.75;6194923;23;45247;-85
2023/06/20 01:42:46;;;;;;;;;2.00;2.00;;;;;23.86;100.00;100200.00;6168346;23;45298;-85
2023/06/20 01:45:14;;;;;;;;;3.00;3.00;;;;;23.91;100.00;100219.63;6192802;23;47439;-85
2023/06/20 01:47:41;;;;;;;;;4.67;4.00;;;;;23.94;100.00;100220.38;6169344;23;45247;-85
2023/06/20 01:50:09;;;;;;;;;3.00;3.00;;;;;23.94;100.00;100214.06;6170302;23;44842;-85
2023/06/20 01:56:01;;;;;;;;;5.00;2.33;;;;;23.99;100.00;100221.97;6196294;23;45344;-86
2023/06/20 01:58:36;;;;;;;;;3.33;3.33;;;;;23.83;100.00;100232.72;6169423;23;45718;-84
2023/06/20 02:01:03;;;;;;;;;6.00;4.33;;;;;23.89;100.00;100221.53;6197647;23;45659;-85
2023/06/20 02:03:30;;;;;;;;;4.00;4.00;;;;;23.84;100.00;100226.34;6197168;23;44906;-85
2023/06/20 02:05:57;;;;;;;;;5.00;5.00;;;;;23.87;100.00;100218.91;6169495;23;47517;-85
2023/06/20 02:11:46;;;;;;;;;4.00;4.00;;;;;23.78;100.00;100224.81;6193086;23;45700;-85
2023/06/20 02:14:14;;;;;;;;;4.00;4.00;;;;;23.69;100.00;100228.81;6192715;23;45307;-85
2023/06/20 02:16:40;;;;;;;;;2.00;0.00;;;;;23.78;100.00;100221.22;6191585;23;46624;-85
2023/06/20 02:19:07;;;;;;;;;3.67;3.00;;;;;23.74;100.00;100234.03;6192060;23;45385;-84
2023/06/20 02:25:02;;;;;;;;;6.00;5.33;;;;;23.90;100.00;100198.88;6170355;23;45722;-84
2023/06/20 02:27:27;;;;;;;;;6.00;5.33;;;;;23.71;100.00;100202.47;6163708;23;47446;-85
2023/06/20 02:29:55;;;;;;;;;7.33;6.67;;;;;23.78;100.00;100194.06;6164422;23;44781;-84
2023/06/20 02:32:23;;;;;;;;;3.00;3.00;;;;;23.79;100.00;100198.53;6161033;23;45343;-85
2023/06/20 02:34:53;;;;;;;;;6.00;6.00;;;;;23.85;100.00;100190.06;6166015;23;45340;-85
2023/06/20 02:37:22;;;;;;;;;4.67;4.67;;;;;23.75;100.00;100192.31;6163096;23;45435;-85
2023/06/20 02:39:48;;;;;;;;;11.00;7.67;;;;;23.73;100.00;100189.69;6162599;23;45400;-85
2023/06/20 02:42:14;;;;;;;;;3.33;3.33;;;;;23.74;100.00;100196.88;6163488;23;45388;-86
2023/06/20 02:44:39;;;;;;;;;5.33;5.33;;;;;23.78;100.00;100192.22;6163150;23;45284;-85
2023/06/20 02:47:29;;;;;;;;;6.33;5.00;;;;;24.01;100.00;100198.34;6162668;23;46678;-85
2023/06/20 02:50:27;;;;;;;;;6.00;5.67;;;;;24.13;100.00;100187.72;6165398;23;44802;-85
2023/06/20 02:53:19;;;;;;;;;4.67;4.67;;;;;24.06;100.00;100189.00;6162927;23;45420;-84
2023/06/20 02:56:05;;;;;;;;;10.00;7.00;;;;;24.07;100.00;100193.47;6162330;23;45387;-85
2023/06/20 02:58:36;;;;;;;;;6.00;6.00;;;;;23.87;100.00;100186.31;6135767;23;47694;-85
2023/06/20 03:01:03;;;;;;;;;8.33;8.00;;;;;23.84;100.00;100186.47;6135495;23;45798;-85
2023/06/20 03:03:44;;;;;;;;;5.67;5.67;;;;;24.01;100.00;100188.34;6162906;23;45324;-85
2023/06/20 03:06:12;;;;;;;;;8.00;8.00;;;;;23.93;100.00;100198.72;6136728;23;45285;-85
2023/06/20 03:08:42;;;;;;;;;7.00;5.33;;;;;23.93;100.00;100183.28;6150269;23;47925;-85
2023/06/20 03:11:11;;;;;;;;;7.33;6.00;;;;;23.98;100.00;100183.06;6136796;23;44871;-85
2023/06/20 03:16:59;;;;;;;;;7.00;7.00;;;;;23.78;100.00;100169.63;6163047;23;44758;-85
2023/06/20 03:19:25;;;;;;;;;8.00;8.00;;;;;23.80;100.00;100182.16;6162498;23;45624;-85
2023/06/20 03:21:50;;;;;;;;;7.00;7.00;;;;;23.76;100.00;100181.38;6161472;23;45494;-84
2023/06/20 03:24:16;;;;;;;;;7.00;7.00;;;;;23.79;100.00;100177.66;6151625;23;45268;-85
2023/06/20 03:26:42;;;;;;;;;9.67;9.00;;;;;23.74;100.00;100175.16;6167433;23;45824;-85
2023/06/20 03:29:08;;;;;;;;;5.00;5.00;;;;;23.69;100.00;100174.53;6168437;23;47187;-85
2023/06/20 03:31:37;;;;;;;;;6.33;6.33;;;;;23.91;100.00;100177.06;6167691;23;45340;-85
2023/06/20 03:34:02;;;;;;;;;9.67;9.00;;;;;23.67;100.00;100165.56;6196263;23;45416;-85
2023/06/20 03:36:27;;;;;;;;;9.00;9.00;;;;;23.67;100.00;100164.66;6195307;23;45351;-85
2023/06/20 03:38:54;;;;;;;;;11.67;7.67;;;;;23.83;100.00;100168.41;6168828;23;47237;-85
2023/06/20 03:41:19;;;;;;;;;6.33;6.00;;;;;23.68;100.00;100167.31;6170598;23;45341;-85
2023/06/20 03:43:44;;;;;;;;;7.00;6.33;;;;;23.69;100.00;100162.75;6197566;23;46454;-85
2023/06/20 03:46:10;;;;;;;;;6.33;6.33;;;;;23.65;100.00;100166.59;6168091;23;45528;-85
2023/06/20 03:48:35;;;;;;;;;7.00;6.33;;;;;23.63;100.00;100161.25;6169595;23;46493;-86
2023/06/20 03:54:24;;;;;;;;;7.67;7.67;;;;;23.83;100.00;100164.81;6198008;23;45228;-85
2023/06/20 03:56:49;;;;;;;;;8.00;8.00;;;;;23.66;100.00;100163.78;6192674;23;45491;-85
2023/06/20 03:59:15;;;;;;;;;5.67;5.00;;;;;23.68;100.00;100150.16;6168855;23;46711;-85
2023/06/20 04:01:40;;;;;;;;;7.00;7.00;;;;;23.72;100.00;100157.19;6195462;23;44785;-85
2023/06/20 04:04:06;;;;;;;;;9.33;9.33;;;;;23.71;100.00;100150.88;6195217;23;44733;-85
2023/06/20 04:06:37;;;;;;;;;9.33;7.67;;;;;23.70;100.00;100153.69;6168224;23;45876;-85
2023/06/20 04:09:04;;;;;;;;;8.33;8.33;;;;;23.74;100.00;100172.44;6167403;23;46937;-85
2023/06/20 04:11:29;;;;;;;;;8.33;6.67;;;;;23.71;100.00;100169.91;6168946;23;45339;-86
2023/06/20 04:13:55;;;;;;;;;7.00;7.00;;;;;23.75;100.00;100157.03;6170017;23;45454;-85
2023/06/20 04:16:21;;;;;;;;;6.67;5.33;;;;;23.78;100.00;100162.34;6197604;23;45339;-85
2023/06/20 04:18:47;;;;;;;;;7.67;7.33;;;;;23.95;100.00;100158.78;6197867;23;45870;-85
2023/06/20 04:21:16;;;;;;;;;8.33;6.67;;;;;23.96;100.00;100163.25;6197793;23;45335;-85
2023/06/20 04:23:41;;;;;;;;;8.00;8.00;;;;;23.83;100.00;100170.25;6193214;23;44726;-85
2023/06/20 04:26:14;;;;;;;;;8.67;8.33;;;;;24.17;100.00;100167.56;6195051;23;45407;-85
2023/06/20 04:28:39;;;;;;;;;8.33;7.67;;;;;23.90;100.00;100169.00;6192001;23;47073;-86
2023/06/20 04:37:51;;;;;;;;;9.67;9.00;;;;;23.94;100.00;100176.91;6191948;23;44709;-86
2023/06/20 04:40:17;;;;;;;;;7.33;6.33;;;;;23.93;100.00;100168.84;6192757;23;45109;-85
2023/06/20 04:42:42;;;;;;;;;6.33;5.00;;;;;23.94;100.00;100159.75;6167841;23;45873;-85
2023/06/20 04:45:09;;;;;;;;;7.67;7.00;;;;;23.96;100.00;100163.25;6193783;23;45386;-85
2023/06/20 04:47:34;;;;;;;;;6.67;6.00;;;;;23.92;100.00;100162.53;6167706;23;45452;-85
2023/06/20 04:50:03;;;;;;;;;6.33;6.33;;;;;23.97;100.00;100159.56;6194702;23;45859;-86
2023/06/20 04:52:32;;;;;;;;;7.00;7.00;;;;;24.02;100.00;100162.94;6193657;23;45363;-86
2023/06/20 04:55:04;;;;;;;;;8.00;6.00;;;;;24.00;100.00;100150.41;6194314;23;45742;-84
2023/06/20 04:57:31;;;;;;;;;11.00;8.67;;;;;24.07;100.00;100155.44;6192914;23;44786;-84
2023/06/20 05:00:00;;;;;;;;;7.33;7.00;;;;;24.21;100.00;100151.13;6167419;23;47634;-84
2023/06/20 05:02:26;;;;;;;;;8.67;8.67;;;;;24.07;100.00;100143.69;6166669;23;45367;-86
2023/06/20 05:04:52;;;;;;;;;8.00;8.00;;;;;24.08;100.00;100140.91;6193844;23;45399;-85
2023/06/20 05:07:18;;;;;;;;;9.00;7.33;;;;;24.02;100.00;100126.75;6167497;23;45357;-85
2023/06/20 05:13:06;;;;;;;;;8.33;7.33;;;;;24.32;100.00;100148.75;6193306;23;45371;-84
2023/06/20 05:15:31;;;;;;;;;7.67;7.67;;;;;24.17;100.00;100148.56;6164690;23;45481;-85
2023/06/20 05:17:57;;;;;;;;;7.00;7.00;;;;;24.24;100.00;100157.28;6163892;23;45384;-85
2023/06/20 05:20:24;;;;;;;;;6.00;6.00;;;;;24.31;100.00;100161.44;6165932;23;47581;-85
2023/06/20 05:22:49;;;;;;;;;9.00;7.67;;;;;24.29;100.00;100154.31;6193189;23;45361;-85
2023/06/20 05:25:18;;;;;;;;;7.00;7.00;;;;;24.48;100.00;100135.19;6164959;23;45824;-85
2023/06/20 05:27:43;;;;;;;;;11.00;6.67;;;;;24.39;100.00;100155.59;6192786;23;45472;-85
2023/06/20 05:30:09;;;;;;;;;6.33;6.33;;;;;24.46;99.93;100150.69;6192925;23;46567;-84
2023/06/20 05:32:35;;;;;;;;;8.00;6.33;;;;;24.45;99.47;100160.72;6192516;23;45418;-85
2023/06/20 05:35:09;;;;;;;;;7.00;7.00;;;;;24.55;98.97;100155.69;6192160;23;45225;-85
2023/06/20 05:37:35;;;;;;;;;8.67;7.67;;;;;24.64;97.54;100148.88;6167969;23;45400;-85
2023/06/20 05:40:00;;;;;;;;;7.67;6.33;;;;;24.83;96.90;100152.38;6196506;23;45344;-84
2023/06/20 05:42:32;;;;;;;;;8.67;8.00;;;;;25.13;95.45;100140.75;6145627;23;45606;-85
2023/06/20 05:44:58;;;;;;;;;7.67;7.67;;;;;25.07;94.06;100146.56;6196175;23;45458;-84
2023/06/20 05:47:24;;;;;;;;;8.00;6.00;;;;;25.16;94.87;100129.69;6170162;23;45332;-84
2023/06/20 05:49:57;;;;;;;;;8.00;8.00;;;;;25.83;92.30;100135.84;6168878;23;47037;-85
2023/06/20 05:52:22;;;;;;;;;9.00;8.00;;;;;25.82;90.60;100141.41;6194525;23;45386;-84
2023/06/20 05:54:48;;;;;;;;;9.33;8.00;;;;;25.89;90.71;100134.59;6168559;23;45472;-84
2023/06/20 05:57:13;;;;;;;;;8.00;7.33;;;;;26.03;88.88;100139.25;6193644;23;45585;-85
2023/06/20 05:59:42;;;;;;;;;9.67;9.67;;;;;26.29;90.78;100118.59;6191831;23;46726;-84
2023/06/20 06:09:03;;;;;;;;;10.67;9.67;;;;;26.27;85.80;100150.53;6197502;23;45418;-83
2023/06/20 06:11:28;;;;;;;;;7.67;7.67;;;;;25.91;85.51;100127.25;6169523;23;47237;-84
2023/06/20 06:13:57;;;;;;;;;7.00;7.00;;;;;25.98;86.80;100139.53;6169849;23;45369;-84
2023/06/20 06:16:23;;;;;;;;;10.00;8.67;;;;;26.04;87.91;100150.06;6195720;23;45364;-84
2023/06/20 06:18:48;;;;;;;;;6.00;6.00;;;;;26.00;88.36;100134.00;6196435;23;45717;-84
2023/06/20 06:21:17;;;;;;;;;9.33;9.33;;;;;26.00;88.26;100129.44;6196742;23;45796;-85
2023/06/20 06:23:43;;;;;;;;;13.67;9.00;;;;;26.11;88.14;100143.28;6190113;23;45326;-86
2023/06/20 06:26:12;;;;;;;;;9.67;6.67;;;;;26.46;88.37;100159.34;6165580;23;45322;-86
2023/06/20 06:28:37;;;;;;;;;9.00;9.00;;;;;26.30;87.29;100166.72;6163967;23;45170;-86
2023/06/20 06:31:47;;;;;;;;;6.67;6.33;;;;;26.69;87.31;100168.00;6162736;23;47553;-87
2023/06/20 06:34:17;;;;;;;;;9.67;7.67;;;;;26.58;86.17;100174.09;6164580;23;45467;-86
2023/06/20 06:36:48;;;;;;;;;9.33;9.33;;;;;26.50;85.39;100149.13;6165040;23;45332;-87
2023/06/20 06:42:11;;;;;;;;;10.67;10.67;;;;;26.48;84.30;100148.31;6166993;23;45391;-86
2023/06/20 06:49:26;;;;;;;;;10.33;9.00;;;;;27.29;82.86;100177.88;6138870;23;44845;-86
2023/06/20 06:51:57;;;;;;;;;10.67;10.67;;;;;27.11;81.46;100153.47;6050363;23;44934;-86
2023/06/20 06:54:52;;;;;;;;;11.00;11.00;;;;;27.50;79.86;100151.00;6078126;23;46596;-86
2023/06/20 06:57:28;;;;;;;;;13.33;13.33;;;;;27.37;78.09;100142.75;6052978;23;45314;-84
2023/06/20 08:03:03;;;;;;;;;11.00;11.00;;;;;28.86;73.69;100222.88;6263005;22;45378;-88
2023/06/20 08:19:47;;;;;;;;;13.00;13.00;;;;;29.53;70.83;100224.53;6264387;22;45310;-87
2023/06/20 08:55:12;;;;;;;;;14.33;14.33;;;;;30.22;66.58;100158.19;5955557;23;45533;-86
2023/06/20 08:58:26;;;;;;;;;15.33;14.00;;;;;30.36;65.06;100185.44;6086203;22;46996;-86
2023/06/20 09:01:49;;;;;;;;;20.00;18.67;;;;;30.09;65.81;100174.69;6204019;22;45340;-86
2023/06/20 09:04:35;;;;;;;;;14.33;14.33;;;;;30.07;68.10;100183.03;6190371;22;45375;-85
2023/06/20 09:14:27;;;;;;;;;17.33;16.00;;;;;30.11;67.19;100157.13;6231044;22;45354;-88
2023/06/20 09:17:09;;;;;;;;;14.67;14.67;;;;;30.04;68.17;100172.31;6172881;22;45378;-87
2023/06/20 09:23:04;;;;;;;;;15.00;15.00;;;;;29.78;68.18;100115.88;6201356;23;44876;-87
2023/06/20 09:26:11;;;;;;;;;17.00;15.00;;;;;30.16;68.23;100154.03;6200656;23;44739;-88
2023/06/20 09:28:43;;;;;;;;;14.67;14.00;;;;;30.13;67.92;100125.97;6199431;23;45748;-87
2023/06/20 09:31:21;;;;;;;;;17.67;17.33;;;;;30.19;69.58;100122.75;6197869;23;44959;-87
2023/06/20 09:33:47;;;;;;;;;17.33;17.33;;;;;30.37;68.05;100135.06;6173275;23;45236;-86
2023/06/20 09:36:43;;;;;;;;;16.67;15.33;;;;;30.93;66.87;100158.16;6175023;23;44981;-87
2023/06/20 09:39:52;;;;;;;;;15.33;15.33;;;;;30.94;66.42;100132.44;6155043;23;46674;-86
2023/06/20 10:06:51;;;;;;;;;17.67;17.67;;;;;32.32;61.60;100183.28;6185907;22;46999;-89
2023/06/20 10:36:33;;;;;;;;;10.00;9.00;;;;;33.44;54.89;100190.84;6262854;22;45397;-87
2023/06/20 10:42:57;;;;;;;;;11.33;10.00;;;;;33.48;52.96;100219.88;6264324;22;44763;-88
2023/06/20 10:46:36;;;;;;;;;;;;;;;;;;;;;
2023/06/20 10:50:12;;;;;;;;;;;;;;;;;;;;;
2023/06/20 13:43:34;;;;;;;;;;;;;;;;;;;;;
2023/06/20 14:39:07;;;;;;;;;10.00;10.00;;;;;39.00;34.29;100206.19;6256151;22;45056;-83
2023/06/20 14:41:33;;;;;;;;;6.33;6.33;;;;;37.97;35.82;100212.97;6281782;22;48003;-83
2023/06/20 14:44:24;;;;;;;;;5.67;5.00;;;;;37.06;36.32;100196.91;6260103;22;44933;-83
2023/06/20 14:46:50;;;;;;;;;7.67;7.67;;;;;36.27;37.75;100212.53;6257467;22;44750;-84
2023/06/20 14:52:25;;;;;;;;;9.33;8.33;;;;;35.18;38.58;100232.56;6167706;22;45262;-84
2023/06/20 14:59:26;;;;;;;;;6.00;6.00;;;;;34.38;40.35;100211.69;5997733;23;45799;-85
2023/06/20 15:02:41;;;;;;;;;4.00;4.00;;;;;33.91;40.82;100208.72;5967039;23;44794;-82
2023/06/20 15:10:40;;;;;;;;;5.67;5.67;;;;;33.61;41.96;100199.47;6222569;22;45600;-83
2023/06/20 15:13:26;;;;;;;;;4.67;4.67;;;;;33.75;41.87;100236.84;6224938;22;45375;-83
2023/06/20 15:16:06;;;;;;;;;5.67;5.67;;;;;33.20;41.81;100213.22;6180062;22;47003;-86
2023/06/20 15:18:41;;;;;;;;;4.33;4.33;;;;;33.06;40.56;100216.31;6202532;22;45347;-83
2023/06/20 15:21:17;;;;;;;;;;;;;;;;;;;;;
2023/06/20 15:23:49;;;;;;;;;4.00;4.00;;;;;32.51;42.04;100223.88;6228864;22;65420;-84
2023/06/20 15:27:14;;;;;;;;;;;;;;;;;;;;;
2023/06/20 15:33:34;;;;;;;;;3.00;3.00;;;;;32.06;43.97;100247.81;6142540;23;45351;-86
2023/06/20 15:37:05;;;;;;;;;8.33;6.00;;;;;31.93;44.00;100244.28;6196778;23;45587;-85
2023/06/20 15:48:32;;;;;;;;;4.67;4.67;;;;;31.85;45.19;100246.81;6183260;22;46414;-85
2023/06/20 15:54:41;;;;;;;;;6.00;6.00;;;;;31.90;46.07;100237.19;6162597;23;45363;-85
2023/06/20 15:57:39;;;;;;;;;4.67;4.33;;;;;31.89;46.22;100242.81;6116008;23;45356;-84
2023/06/20 16:00:16;;;;;;;;;7.00;7.00;;;;;31.62;46.68;100207.50;6014640;23;45502;-83
2023/06/20 16:02:42;;;;;;;;;5.00;5.00;;;;;31.46;46.17;100227.13;6016293;23;46916;-82
2023/06/20 16:05:15;;;;;;;;;6.33;6.33;;;;;31.45;46.32;100220.75;6012369;23;45664;-83
2023/06/20 16:07:56;;;;;;;;;5.67;4.33;;;;;31.27;45.92;100214.84;6012812;23;45424;-83
2023/06/20 16:10:22;;;;;;;;;4.00;4.00;;;;;31.14;46.94;100249.78;5991989;23;45378;-82
2023/06/20 16:12:53;;;;;;;;;5.33;5.33;;;;;31.26;47.14;100250.69;6015094;23;45886;-84
2023/06/20 16:15:25;;;;;;;;;5.00;5.00;;;;;31.09;48.19;100219.97;6018144;23;45402;-83
2023/06/20 16:17:53;;;;;;;;;6.33;6.33;;;;;31.19;48.68;100236.56;6017581;23;45470;-82
2023/06/20 16:20:19;;;;;;;;;4.67;4.67;;;;;31.27;49.03;100217.59;6015244;23;45423;-83
2023/06/20 16:22:44;;;;;;;;;6.00;5.67;;;;;33.21;48.17;100198.44;5986609;23;45452;-82
2023/06/20 16:25:16;;;;;;;;;5.33;5.33;;;;;36.14;45.43;100223.13;5987950;23;46006;-83
2023/06/20 16:27:51;;;;;;;;;;;;;;;;;;;;;
2023/06/20 16:30:23;;;;;;;;;6.33;6.33;;;;;37.04;41.24;100229.47;6065517;23;66045;-82
2023/06/20 16:32:49;;;;;;;;;5.67;5.67;;;;;36.55;42.13;100202.22;6107622;23;46892;-84
2023/06/20 16:35:14;;;;;;;;;5.00;5.00;;;;;36.05;41.76;100223.00;6133177;23;44897;-82
2023/06/20 16:37:40;;;;;;;;;6.00;6.00;;;;;35.48;42.14;100238.88;6228945;22;45442;-84
2023/06/20 16:40:08;;;;;;;;;5.33;5.33;;;;;34.83;42.70;100242.38;6255362;22;44980;-81
2023/06/20 16:42:34;;;;;;;;;5.67;5.67;;;;;34.21;42.83;100272.13;6255183;22;45314;-84
2023/06/20 16:45:00;;;;;;;;;7.33;7.33;;;;;33.56;43.33;100238.50;6253999;22;44859;-82
2023/06/20 16:47:26;;;;;;;;;9.33;8.33;;;;;33.19;43.33;100268.50;6257180;22;45410;-81
2023/06/20 16:49:52;;;;;;;;;6.00;6.00;;;;;32.64;45.07;100252.13;6255732;22;45429;-82
2023/06/20 16:52:17;;;;;;;;;5.33;5.33;;;;;32.48;45.13;100245.16;6257393;22;45331;-82
2023/06/20 16:54:43;;;;;;;;;5.00;5.00;;;;;32.96;46.12;100263.06;6255437;22;45361;-83
2023/06/20 16:57:18;;;;;;;;;7.00;7.00;;;;;34.96;45.62;100250.34;6279248;22;45635;-83
2023/06/20 16:59:44;;;;;;;;;6.00;6.00;;;;;37.61;42.63;100260.41;6254926;22;45334;-83
2023/06/20 17:02:11;;;;;;;;;10.33;9.00;;;;;38.51;38.53;100258.97;6252717;22;48155;-83
2023/06/20 17:04:37;;;;;;;;;4.00;4.00;;;;;37.20;38.78;100240.69;6251658;22;45786;-83
2023/06/20 17:07:03;;;;;;;;;7.67;6.33;;;;;36.10;40.19;100271.47;6253194;22;45669;-83
2023/06/20 17:09:28;;;;;;;;;9.00;7.00;;;;;35.07;41.71;100285.25;6249827;22;45347;-82
2023/06/20 17:11:54;;;;;;;;;8.33;8.00;;;;;34.44;41.90;100300.34;6250970;22;45854;-82
2023/06/20 17:14:19;;;;;;;;;5.00;5.00;;;;;33.97;42.76;100297.31;6253176;22;45391;-83
2023/06/20 17:16:44;;;;;;;;;7.00;5.00;;;;;33.58;43.13;100288.00;6252782;22;45269;-83
2023/06/20 17:19:19;;;;;;;;;8.00;8.00;;;;;33.26;43.33;100275.19;6254342;22;45553;-83
2023/06/20 17:21:45;;;;;;;;;6.33;6.33;;;;;32.99;44.60;100276.59;6256944;22;46622;-83
2023/06/20 17:24:12;;;;;;;;;8.00;6.00;;;;;33.01;44.63;100262.69;6256064;22;45745;-82
2023/06/20 17:26:39;;;;;;;;;7.67;7.67;;;;;32.87;44.70;100274.91;6254850;22;45283;-82
2023/06/20 17:29:04;;;;;;;;;6.00;5.00;;;;;32.77;44.98;100294.13;6253078;22;45505;-82
2023/06/20 17:34:52;;;;;;;;;9.67;8.33;;;;;32.37;45.92;100288.38;6254640;22;44821;-82
2023/06/20 17:37:18;;;;;;;;;9.00;7.67;;;;;32.32;46.04;100302.53;6253738;22;45424;-82
2023/06/20 17:39:43;;;;;;;;;9.00;9.00;;;;;31.99;45.75;100304.28;6252345;22;45346;-82
2023/06/20 17:42:09;;;;;;;;;7.00;7.00;;;;;31.84;45.67;100306.44;6279401;22;46515;-83
2023/06/20 17:44:35;;;;;;;;;9.00;7.00;;;;;31.75;46.17;100298.06;6255314;22;45707;-82
2023/06/20 17:47:00;;;;;;;;;8.00;6.00;;;;;31.85;45.92;100299.06;6252178;22;45640;-83
2023/06/20 17:49:26;;;;;;;;;7.67;7.00;;;;;31.70;45.57;100301.22;6254411;22;45292;-82
2023/06/20 17:51:51;;;;;;;;;9.00;8.00;;;;;31.60;47.19;100295.56;6254586;22;46302;-83
2023/06/20 17:54:16;;;;;;;;;9.00;7.33;;;;;31.62;47.40;100317.47;6228510;22;45651;-83
2023/06/20 17:56:42;;;;;;;;;8.00;8.00;;;;;31.50;46.82;100305.56;6254125;22;45321;-83
2023/06/20 17:59:07;;;;;;;;;10.00;7.67;;;;;31.33;47.27;100320.66;6257424;22;45215;-83
2023/06/20 18:01:33;;;;;;;;;8.33;8.00;;;;;31.20;47.71;100311.63;6258856;22;45444;-83
2023/06/20 18:03:59;;;;;;;;;13.33;13.33;;;;;31.03;47.75;100323.94;6258771;22;45616;-83
2023/06/20 18:06:24;;;;;;;;;10.33;9.00;;;;;30.87;47.95;100325.09;6230404;22;45296;-82
2023/06/20 18:09:34;;;;;;;;;7.00;7.00;;;;;31.00;48.30;100330.53;6229682;22;45348;-83
2023/06/20 18:12:02;;;;;;;;;7.00;7.00;;;;;30.84;48.49;100336.31;6252985;22;47847;-83
2023/06/20 18:14:28;;;;;;;;;9.67;9.00;;;;;30.51;49.03;100335.16;6255397;22;45283;-81
2023/06/20 18:16:54;;;;;;;;;8.67;8.67;;;;;30.35;49.45;100323.59;6254140;22;45346;-83
2023/06/20 18:19:25;;;;;;;;;9.33;7.67;;;;;30.39;49.65;100325.13;6256777;22;45262;-83
2023/06/20 18:21:51;;;;;;;;;8.00;8.00;;;;;30.28;49.71;100320.41;6228148;22;47502;-82
2023/06/20 18:24:17;;;;;;;;;8.00;8.00;;;;;30.11;49.82;100329.03;6252560;22;45497;-83
2023/06/20 18:26:42;;;;;;;;;8.00;8.00;;;;;30.08;50.10;100321.03;6254036;22;45321;-83
2023/06/20 18:29:08;;;;;;;;;10.33;10.33;;;;;30.02;50.45;100322.38;6226006;22;45355;-83
2023/06/20 18:31:33;;;;;;;;;8.00;8.00;;;;;29.88;51.00;100314.28;6227451;22;47048;-82
2023/06/20 18:34:33;;;;;;;;;12.00;11.67;;;;;30.04;50.59;100325.88;6226840;22;45286;-83
2023/06/20 18:36:58;;;;;;;;;9.67;9.67;;;;;29.74;51.55;100317.16;6253726;22;45741;-83
2023/06/20 18:39:24;;;;;;;;;10.33;10.33;;;;;29.74;52.01;100317.16;6255294;22;44761;-83
2023/06/20 18:41:49;;;;;;;;;9.67;9.00;;;;;29.66;52.54;100309.47;6253003;22;45351;-83
2023/06/20 18:44:15;;;;;;;;;8.00;8.00;;;;;29.68;52.53;100326.69;6255580;22;45553;-84
2023/06/20 18:47:37;;;;;;;;;9.67;8.67;;;;;29.88;51.84;100328.00;6227174;22;45358;-83
2023/06/20 18:50:09;;;;;;;;;8.67;7.67;;;;;29.75;52.41;100329.88;6222255;22;45336;-82
2023/06/20 18:52:37;;;;;;;;;10.33;9.33;;;;;29.55;52.74;100325.78;6196942;22;47242;-82
2023/06/20 18:55:02;;;;;;;;;9.00;9.00;;;;;29.32;53.05;100329.19;6224052;22;44827;-82
2023/06/20 18:57:28;;;;;;;;;10.00;8.00;;;;;29.31;52.94;100337.53;6221188;22;45409;-83
2023/06/20 18:59:53;;;;;;;;;10.00;9.33;;;;;29.26;53.10;100329.63;6224757;22;44895;-83
2023/06/20 19:02:18;;;;;;;;;11.33;10.33;;;;;29.22;53.40;100319.88;6199390;22;47123;-83
2023/06/20 19:04:44;;;;;;;;;9.00;9.00;;;;;29.22;53.45;100330.84;6226136;22;45263;-82
2023/06/20 19:07:09;;;;;;;;;11.33;9.67;;;;;29.19;53.23;100349.34;6224256;22;45263;-82
2023/06/20 19:09:57;;;;;;;;;9.33;8.33;;;;;29.23;53.84;100357.25;6224956;22;45561;-82
2023/06/20 19:12:25;;;;;;;;;8.67;8.67;;;;;29.16;54.15;100361.38;6228101;22;45901;-83
2023/06/20 19:14:50;;;;;;;;;12.33;12.33;;;;;29.11;53.87;100341.69;6228299;22;45341;-83
2023/06/20 19:17:16;;;;;;;;;10.00;9.67;;;;;29.07;54.11;100334.63;6225401;22;45403;-82
2023/06/20 19:19:41;;;;;;;;;7.33;7.33;;;;;29.08;53.99;100358.28;6224134;22;45380;-83
2023/06/20 19:22:07;;;;;;;;;9.00;9.00;;;;;29.01;54.47;100370.66;6225108;22;45160;-82
2023/06/20 19:24:32;;;;;;;;;10.00;10.00;;;;;28.76;54.64;100347.69;6226633;22;45339;-82
2023/06/20 19:26:58;;;;;;;;;12.33;11.00;;;;;28.67;55.46;100337.38;6225321;22;45405;-83
2023/06/20 19:29:24;;;;;;;;;11.33;10.33;;;;;28.75;55.89;100343.19;6226331;22;45365;-83
2023/06/20 19:31:50;;;;;;;;;6.67;6.33;;;;;28.51;56.26;100351.22;6198736;22;47379;-84
2023/06/20 19:34:15;;;;;;;;;11.67;8.33;;;;;28.49;56.35;100373.16;6224397;22;45303;-83
2023/06/20 19:36:40;;;;;;;;;10.00;10.00;;;;;28.43;57.13;100379.03;6223055;22;45656;-83
2023/06/20 19:39:07;;;;;;;;;8.33;8.33;;;;;28.33;57.21;100377.91;6225599;22;45304;-83
2023/06/20 19:41:32;;;;;;;;;14.00;13.00;;;;;28.07;57.52;100355.88;6198294;22;47085;-83
2023/06/20 19:43:58;;;;;;;;;11.00;10.67;;;;;28.16;57.88;100394.53;6198125;22;45341;-82
2023/06/20 19:46:23;;;;;;;;;10.67;10.67;;;;;27.98;58.08;100375.63;6224648;22;45368;-83